Westline, Pennsylvania
Current Conditions -  °F | °C
As of 11:10 PM on Wednesday 17 Dec 2014 (Local Time) from KBFD Reporting Station
Light Snow Light Snow  
Wind Chill: 18°   Ceiling: 800
Heat Index: 26°   Visibility: 2mi
Dew Point: 22°   Wind: 8mph
Humidity: 84%   Direction: 270°W
Pressure: 29.95"   Gusts: 20mph
Location:  41.78°N, 78.77°W
Report Text: KBFD 180410Z AUTO 27007G17KT 2SM -SN BR BKN008 OVC015 M03/M06 A2995 RMK AO2 P0001 T10331056
Loading
Personal Weather Stations






























Interactive Weather Map New forecast layout! Learn more

10-Day Weather Forecast

Advertisements
Track Severe Weather on mobile